sensor_id;sensor_type;location;lat;lon;timestamp;P1;durP1;ratioP1;P2;durP2;ratioP2
39410;SDS011;26579;43.238;23.124;2023-07-22T00:01:49;14.55;;;5.72;;
39410;SDS011;26579;43.238;23.124;2023-07-22T00:04:15;10.70;;;4.40;;
39410;SDS011;26579;43.238;23.124;2023-07-22T00:06:40;9.90;;;4.90;;
39410;SDS011;26579;43.238;23.124;2023-07-22T00:09:06;10.32;;;5.55;;
39410;SDS011;26579;43.238;23.124;2023-07-22T00:11:31;17.35;;;5.30;;
39410;SDS011;26579;43.238;23.124;2023-07-22T00:13:57;21.80;;;3.42;;
39410;SDS011;26579;43.238;23.124;2023-07-22T00:16:23;11.48;;;5.28;;
39410;SDS011;26579;43.238;23.124;2023-07-22T00:18:49;16.05;;;4.18;;
39410;SDS011;26579;43.238;23.124;2023-07-22T00:21:15;9.40;;;3.95;;
39410;SDS011;26579;43.238;23.124;2023-07-22T00:23:41;9.35;;;4.45;;
39410;SDS011;26579;43.238;23.124;2023-07-22T00:26:06;10.43;;;4.65;;
39410;SDS011;26579;43.238;23.124;2023-07-22T00:28:32;10.75;;;4.70;;
39410;SDS011;26579;43.238;23.124;2023-07-22T00:30:58;9.02;;;4.13;;
39410;SDS011;26579;43.238;23.124;2023-07-22T00:33:23;17.77;;;5.03;;
39410;SDS011;26579;43.238;23.124;2023-07-22T00:35:49;13.40;;;5.30;;
39410;SDS011;26579;43.238;23.124;2023-07-22T00:38:15;11.30;;;4.65;;
39410;SDS011;26579;43.238;23.124;2023-07-22T00:40:41;13.00;;;4.85;;
39410;SDS011;26579;43.238;23.124;2023-07-22T00:43:06;8.85;;;4.38;;
39410;SDS011;26579;43.238;23.124;2023-07-22T00:45:32;15.77;;;5.18;;
39410;SDS011;26579;43.238;23.124;2023-07-22T00:47:58;8.18;;;4.68;;
39410;SDS011;26579;43.238;23.124;2023-07-22T00:50:23;13.40;;;4.75;;
39410;SDS011;26579;43.238;23.124;2023-07-22T00:52:50;8.80;;;4.45;;
39410;SDS011;26579;43.238;23.124;2023-07-22T00:55:17;18.52;;;5.75;;
39410;SDS011;26579;43.238;23.124;2023-07-22T00:57:43;9.10;;;4.80;;
39410;SDS011;26579;43.238;23.124;2023-07-22T01:00:08;9.73;;;4.40;;
39410;SDS011;26579;43.238;23.124;2023-07-22T01:02:35;12.82;;;5.88;;
39410;SDS011;26579;43.238;23.124;2023-07-22T01:05:01;12.32;;;5.13;;
39410;SDS011;26579;43.238;23.124;2023-07-22T01:07:28;12.02;;;5.03;;
39410;SDS011;26579;43.238;23.124;2023-07-22T01:09:56;11.93;;;5.22;;
39410;SDS011;26579;43.238;23.124;2023-07-22T01:12:22;11.77;;;5.03;;
39410;SDS011;26579;43.238;23.124;2023-07-22T01:14:48;19.95;;;5.28;;
39410;SDS011;26579;43.238;23.124;2023-07-22T01:17:14;11.63;;;4.60;;
39410;SDS011;26579;43.238;23.124;2023-07-22T01:19:39;11.02;;;5.88;;
39410;SDS011;26579;43.238;23.124;2023-07-22T01:22:06;17.70;;;6.07;;
39410;SDS011;26579;43.238;23.124;2023-07-22T01:24:32;15.85;;;6.53;;
39410;SDS011;26579;43.238;23.124;2023-07-22T01:26:59;9.05;;;5.60;;
39410;SDS011;26579;43.238;23.124;2023-07-22T01:29:25;13.82;;;6.18;;
39410;SDS011;26579;43.238;23.124;2023-07-22T01:31:52;13.50;;;6.00;;
39410;SDS011;26579;43.238;23.124;2023-07-22T01:34:19;11.32;;;5.55;;
39410;SDS011;26579;43.238;23.124;2023-07-22T01:36:45;9.05;;;5.25;;
39410;SDS011;26579;43.238;23.124;2023-07-22T01:39:11;12.80;;;5.30;;
39410;SDS011;26579;43.238;23.124;2023-07-22T01:41:37;10.80;;;4.95;;
39410;SDS011;26579;43.238;23.124;2023-07-22T01:44:03;16.33;;;5.50;;
39410;SDS011;26579;43.238;23.124;2023-07-22T01:46:29;11.55;;;5.20;;
39410;SDS011;26579;43.238;23.124;2023-07-22T01:48:57;9.82;;;5.28;;
39410;SDS011;26579;43.238;23.124;2023-07-22T01:51:24;11.40;;;5.63;;
39410;SDS011;26579;43.238;23.124;2023-07-22T01:53:49;10.00;;;4.90;;
39410;SDS011;26579;43.238;23.124;2023-07-22T01:56:15;12.77;;;5.47;;
39410;SDS011;26579;43.238;23.124;2023-07-22T01:58:41;18.95;;;5.50;;
39410;SDS011;26579;43.238;23.124;2023-07-22T02:01:07;12.18;;;5.60;;
39410;SDS011;26579;43.238;23.124;2023-07-22T02:03:32;10.15;;;4.97;;
39410;SDS011;26579;43.238;23.124;2023-07-22T02:06:02;12.57;;;5.40;;
39410;SDS011;26579;43.238;23.124;2023-07-22T02:08:28;25.17;;;6.47;;
39410;SDS011;26579;43.238;23.124;2023-07-22T02:10:54;8.68;;;4.70;;
39410;SDS011;26579;43.238;23.124;2023-07-22T02:13:19;22.23;;;5.95;;
39410;SDS011;26579;43.238;23.124;2023-07-22T02:15:45;18.70;;;5.78;;
39410;SDS011;26579;43.238;23.124;2023-07-22T02:18:11;10.60;;;5.22;;
39410;SDS011;26579;43.238;23.124;2023-07-22T02:20:36;14.18;;;5.60;;
39410;SDS011;26579;43.238;23.124;2023-07-22T02:23:02;13.80;;;4.90;;
39410;SDS011;26579;43.238;23.124;2023-07-22T02:25:28;16.35;;;5.80;;
39410;SDS011;26579;43.238;23.124;2023-07-22T02:27:53;14.30;;;5.47;;
39410;SDS011;26579;43.238;23.124;2023-07-22T02:30:19;11.82;;;4.43;;
39410;SDS011;26579;43.238;23.124;2023-07-22T02:32:45;13.73;;;4.97;;
39410;SDS011;26579;43.238;23.124;2023-07-22T02:35:10;12.35;;;5.28;;
39410;SDS011;26579;43.238;23.124;2023-07-22T02:37:37;16.05;;;5.68;;
39410;SDS011;26579;43.238;23.124;2023-07-22T02:40:04;15.15;;;5.57;;
39410;SDS011;26579;43.238;23.124;2023-07-22T02:42:30;11.10;;;4.47;;
39410;SDS011;26579;43.238;23.124;2023-07-22T02:44:55;10.10;;;5.00;;
39410;SDS011;26579;43.238;23.124;2023-07-22T02:47:21;16.73;;;5.50;;
39410;SDS011;26579;43.238;23.124;2023-07-22T02:49:47;12.95;;;5.43;;
39410;SDS011;26579;43.238;23.124;2023-07-22T02:52:12;19.23;;;6.28;;
39410;SDS011;26579;43.238;23.124;2023-07-22T02:54:41;11.18;;;4.88;;
39410;SDS011;26579;43.238;23.124;2023-07-22T02:57:07;15.07;;;5.40;;
39410;SDS011;26579;43.238;23.124;2023-07-22T02:59:32;9.88;;;4.97;;
39410;SDS011;26579;43.238;23.124;2023-07-22T03:01:58;12.80;;;4.70;;
39410;SDS011;26579;43.238;23.124;2023-07-22T03:04:24;12.48;;;5.47;;
39410;SDS011;26579;43.238;23.124;2023-07-22T03:06:50;15.07;;;5.28;;
39410;SDS011;26579;43.238;23.124;2023-07-22T03:09:15;15.23;;;5.07;;
39410;SDS011;26579;43.238;23.124;2023-07-22T03:11:41;17.00;;;6.43;;
39410;SDS011;26579;43.238;23.124;2023-07-22T03:14:07;17.35;;;5.13;;
39410;SDS011;26579;43.238;23.124;2023-07-22T03:16:32;15.73;;;5.10;;
39410;SDS011;26579;43.238;23.124;2023-07-22T03:18:58;12.60;;;4.65;;
39410;SDS011;26579;43.238;23.124;2023-07-22T03:21:23;12.18;;;5.03;;
39410;SDS011;26579;43.238;23.124;2023-07-22T03:23:49;12.75;;;4.93;;
39410;SDS011;26579;43.238;23.124;2023-07-22T03:26:15;9.98;;;4.95;;
39410;SDS011;26579;43.238;23.124;2023-07-22T03:28:41;13.25;;;5.55;;
39410;SDS011;26579;43.238;23.124;2023-07-22T03:31:07;9.45;;;5.45;;
39410;SDS011;26579;43.238;23.124;2023-07-22T03:33:32;15.50;;;5.07;;
39410;SDS011;26579;43.238;23.124;2023-07-22T03:35:58;14.45;;;4.93;;
39410;SDS011;26579;43.238;23.124;2023-07-22T03:38:24;16.65;;;5.25;;
39410;SDS011;26579;43.238;23.124;2023-07-22T03:40:49;8.82;;;4.43;;
39410;SDS011;26579;43.238;23.124;2023-07-22T03:43:15;10.93;;;5.40;;
39410;SDS011;26579;43.238;23.124;2023-07-22T03:45:41;13.98;;;5.10;;
39410;SDS011;26579;43.238;23.124;2023-07-22T03:48:06;13.93;;;6.03;;
39410;SDS011;26579;43.238;23.124;2023-07-22T03:50:32;13.80;;;6.68;;
39410;SDS011;26579;43.238;23.124;2023-07-22T03:52:58;11.95;;;5.72;;
39410;SDS011;26579;43.238;23.124;2023-07-22T03:55:23;11.30;;;5.43;;
39410;SDS011;26579;43.238;23.124;2023-07-22T03:57:49;9.10;;;5.00;;
39410;SDS011;26579;43.238;23.124;2023-07-22T04:00:14;16.77;;;6.28;;
39410;SDS011;26579;43.238;23.124;2023-07-22T04:02:41;11.75;;;5.15;;
39410;SDS011;26579;43.238;23.124;2023-07-22T04:05:07;11.15;;;5.38;;
39410;SDS011;26579;43.238;23.124;2023-07-22T04:07:33;14.32;;;5.65;;
39410;SDS011;26579;43.238;23.124;2023-07-22T04:09:59;10.90;;;5.60;;
39410;SDS011;26579;43.238;23.124;2023-07-22T04:12:25;12.05;;;5.57;;
39410;SDS011;26579;43.238;23.124;2023-07-22T04:14:51;12.70;;;6.40;;
39410;SDS011;26579;43.238;23.124;2023-07-22T04:17:16;14.18;;;5.75;;
39410;SDS011;26579;43.238;23.124;2023-07-22T04:19:42;14.93;;;6.15;;
39410;SDS011;26579;43.238;23.124;2023-07-22T04:22:08;15.90;;;6.03;;
39410;SDS011;26579;43.238;23.124;2023-07-22T04:24:33;13.55;;;6.07;;
39410;SDS011;26579;43.238;23.124;2023-07-22T04:27:00;9.82;;;5.63;;
39410;SDS011;26579;43.238;23.124;2023-07-22T04:29:26;14.35;;;5.78;;
39410;SDS011;26579;43.238;23.124;2023-07-22T04:31:56;13.88;;;5.93;;
39410;SDS011;26579;43.238;23.124;2023-07-22T04:34:31;17.02;;;6.25;;
39410;SDS011;26579;43.238;23.124;2023-07-22T04:36:57;15.27;;;5.30;;
39410;SDS011;26579;43.238;23.124;2023-07-22T04:39:24;19.25;;;5.97;;
39410;SDS011;26579;43.238;23.124;2023-07-22T04:41:50;15.82;;;6.40;;
39410;SDS011;26579;43.238;23.124;2023-07-22T04:44:16;17.80;;;6.05;;
39410;SDS011;26579;43.238;23.124;2023-07-22T04:46:42;14.30;;;5.88;;
39410;SDS011;26579;43.238;23.124;2023-07-22T04:49:08;16.38;;;6.40;;
39410;SDS011;26579;43.238;23.124;2023-07-22T04:51:34;15.55;;;6.03;;
39410;SDS011;26579;43.238;23.124;2023-07-22T04:53:59;15.20;;;7.97;;
39410;SDS011;26579;43.238;23.124;2023-07-22T04:56:25;19.58;;;7.88;;
39410;SDS011;26579;43.238;23.124;2023-07-22T04:58:50;17.85;;;7.28;;
39410;SDS011;26579;43.238;23.124;2023-07-22T05:01:16;16.05;;;5.50;;
39410;SDS011;26579;43.238;23.124;2023-07-22T05:03:42;14.45;;;6.45;;
39410;SDS011;26579;43.238;23.124;2023-07-22T05:06:07;17.75;;;6.20;;
39410;SDS011;26579;43.238;23.124;2023-07-22T05:08:33;15.80;;;5.82;;
39410;SDS011;26579;43.238;23.124;2023-07-22T05:10:59;13.32;;;5.95;;
39410;SDS011;26579;43.238;23.124;2023-07-22T05:13:25;10.50;;;5.32;;
39410;SDS011;26579;43.238;23.124;2023-07-22T05:15:51;15.07;;;6.63;;
39410;SDS011;26579;43.238;23.124;2023-07-22T05:18:16;15.90;;;6.35;;
39410;SDS011;26579;43.238;23.124;2023-07-22T05:20:42;20.95;;;6.28;;
39410;SDS011;26579;43.238;23.124;2023-07-22T05:23:08;13.30;;;6.13;;
39410;SDS011;26579;43.238;23.124;2023-07-22T05:25:34;18.48;;;5.47;;
39410;SDS011;26579;43.238;23.124;2023-07-22T05:27:59;30.23;;;6.10;;
39410;SDS011;26579;43.238;23.124;2023-07-22T05:30:25;15.02;;;6.70;;
39410;SDS011;26579;43.238;23.124;2023-07-22T05:32:54;17.08;;;6.22;;
39410;SDS011;26579;43.238;23.124;2023-07-22T05:35:19;17.80;;;6.38;;
39410;SDS011;26579;43.238;23.124;2023-07-22T05:37:45;17.02;;;5.90;;
39410;SDS011;26579;43.238;23.124;2023-07-22T05:40:11;13.77;;;7.65;;
39410;SDS011;26579;43.238;23.124;2023-07-22T05:42:37;15.80;;;7.50;;
39410;SDS011;26579;43.238;23.124;2023-07-22T05:45:03;16.88;;;5.95;;
39410;SDS011;26579;43.238;23.124;2023-07-22T05:47:30;15.93;;;5.80;;
39410;SDS011;26579;43.238;23.124;2023-07-22T05:49:55;18.25;;;7.03;;
39410;SDS011;26579;43.238;23.124;2023-07-22T05:52:21;18.27;;;6.97;;
39410;SDS011;26579;43.238;23.124;2023-07-22T05:54:47;15.80;;;6.53;;
39410;SDS011;26579;43.238;23.124;2023-07-22T05:57:12;9.95;;;5.70;;
39410;SDS011;26579;43.238;23.124;2023-07-22T05:59:38;10.98;;;5.05;;
39410;SDS011;26579;43.238;23.124;2023-07-22T06:02:04;14.32;;;5.40;;
39410;SDS011;26579;43.238;23.124;2023-07-22T06:04:31;15.95;;;4.97;;
39410;SDS011;26579;43.238;23.124;2023-07-22T06:06:56;10.95;;;5.25;;
39410;SDS011;26579;43.238;23.124;2023-07-22T06:09:22;14.10;;;5.80;;
39410;SDS011;26579;43.238;23.124;2023-07-22T06:11:48;13.93;;;5.78;;
39410;SDS011;26579;43.238;23.124;2023-07-22T06:14:13;17.45;;;6.28;;
39410;SDS011;26579;43.238;23.124;2023-07-22T06:16:39;13.68;;;5.75;;
39410;SDS011;26579;43.238;23.124;2023-07-22T06:19:05;16.90;;;5.85;;
39410;SDS011;26579;43.238;23.124;2023-07-22T06:21:31;10.32;;;4.63;;
39410;SDS011;26579;43.238;23.124;2023-07-22T06:23:56;13.52;;;4.95;;
39410;SDS011;26579;43.238;23.124;2023-07-22T06:26:22;18.25;;;5.85;;
39410;SDS011;26579;43.238;23.124;2023-07-22T06:28:48;15.65;;;4.90;;
39410;SDS011;26579;43.238;23.124;2023-07-22T06:31:14;13.88;;;5.88;;
39410;SDS011;26579;43.238;23.124;2023-07-22T06:33:39;12.70;;;5.65;;
39410;SDS011;26579;43.238;23.124;2023-07-22T06:36:05;13.75;;;5.63;;
39410;SDS011;26579;43.238;23.124;2023-07-22T06:38:31;11.82;;;5.47;;
39410;SDS011;26579;43.238;23.124;2023-07-22T06:40:56;14.77;;;5.03;;
39410;SDS011;26579;43.238;23.124;2023-07-22T06:43:23;12.43;;;5.40;;
39410;SDS011;26579;43.238;23.124;2023-07-22T06:45:48;13.80;;;5.15;;
39410;SDS011;26579;43.238;23.124;2023-07-22T06:48:14;10.70;;;4.97;;
39410;SDS011;26579;43.238;23.124;2023-07-22T06:54:27;9.57;;;5.32;;
39410;SDS011;26579;43.238;23.124;2023-07-22T06:56:52;14.43;;;4.43;;
39410;SDS011;26579;43.238;23.124;2023-07-22T06:59:18;9.93;;;4.13;;
39410;SDS011;26579;43.238;23.124;2023-07-22T07:01:44;9.55;;;4.30;;
39410;SDS011;26579;43.238;23.124;2023-07-22T07:04:09;18.75;;;5.30;;
39410;SDS011;26579;43.238;23.124;2023-07-22T07:06:35;10.30;;;3.97;;
39410;SDS011;26579;43.238;23.124;2023-07-22T07:09:01;8.82;;;3.40;;
39410;SDS011;26579;43.238;23.124;2023-07-22T07:11:28;14.00;;;4.05;;
39410;SDS011;26579;43.238;23.124;2023-07-22T07:13:53;11.25;;;3.92;;
39410;SDS011;26579;43.238;23.124;2023-07-22T07:16:23;12.25;;;3.47;;
39410;SDS011;26579;43.238;23.124;2023-07-22T07:18:53;7.70;;;3.08;;
39410;SDS011;26579;43.238;23.124;2023-07-22T07:21:19;10.93;;;3.42;;
39410;SDS011;26579;43.238;23.124;2023-07-22T07:23:45;8.63;;;3.53;;
39410;SDS011;26579;43.238;23.124;2023-07-22T07:26:10;15.40;;;3.42;;
39410;SDS011;26579;43.238;23.124;2023-07-22T07:28:36;13.80;;;3.90;;
39410;SDS011;26579;43.238;23.124;2023-07-22T07:31:02;10.60;;;3.63;;
39410;SDS011;26579;43.238;23.124;2023-07-22T07:33:28;15.07;;;3.47;;
39410;SDS011;26579;43.238;23.124;2023-07-22T07:35:54;20.50;;;3.42;;
39410;SDS011;26579;43.238;23.124;2023-07-22T07:38:20;12.43;;;3.35;;
39410;SDS011;26579;43.238;23.124;2023-07-22T07:40:45;27.77;;;5.07;;
39410;SDS011;26579;43.238;23.124;2023-07-22T07:43:11;25.73;;;5.80;;
39410;SDS011;26579;43.238;23.124;2023-07-22T07:45:38;24.98;;;3.97;;
39410;SDS011;26579;43.238;23.124;2023-07-22T07:48:04;12.15;;;2.83;;
39410;SDS011;26579;43.238;23.124;2023-07-22T07:50:31;14.50;;;3.20;;
39410;SDS011;26579;43.238;23.124;2023-07-22T07:52:58;9.98;;;2.92;;
39410;SDS011;26579;43.238;23.124;2023-07-22T07:55:23;7.57;;;2.47;;
39410;SDS011;26579;43.238;23.124;2023-07-22T07:57:49;14.95;;;3.10;;
39410;SDS011;26579;43.238;23.124;2023-07-22T08:00:15;8.27;;;3.00;;
39410;SDS011;26579;43.238;23.124;2023-07-22T08:02:41;9.77;;;3.53;;
39410;SDS011;26579;43.238;23.124;2023-07-22T08:05:06;12.52;;;4.18;;
39410;SDS011;26579;43.238;23.124;2023-07-22T08:07:32;11.68;;;3.47;;
39410;SDS011;26579;43.238;23.124;2023-07-22T08:09:58;11.98;;;3.50;;
39410;SDS011;26579;43.238;23.124;2023-07-22T08:12:24;8.57;;;3.65;;
39410;SDS011;26579;43.238;23.124;2023-07-22T08:14:50;8.85;;;2.83;;
39410;SDS011;26579;43.238;23.124;2023-07-22T08:17:18;10.82;;;2.80;;
39410;SDS011;26579;43.238;23.124;2023-07-22T08:19:44;11.13;;;3.60;;
39410;SDS011;26579;43.238;23.124;2023-07-22T08:22:09;8.15;;;2.95;;
39410;SDS011;26579;43.238;23.124;2023-07-22T08:24:35;8.52;;;3.28;;
39410;SDS011;26579;43.238;23.124;2023-07-22T08:27:01;10.65;;;3.22;;
39410;SDS011;26579;43.238;23.124;2023-07-22T08:29:27;9.70;;;3.05;;
39410;SDS011;26579;43.238;23.124;2023-07-22T08:31:52;9.93;;;3.00;;
39410;SDS011;26579;43.238;23.124;2023-07-22T08:34:18;11.43;;;3.22;;
39410;SDS011;26579;43.238;23.124;2023-07-22T08:36:44;8.65;;;2.67;;
39410;SDS011;26579;43.238;23.124;2023-07-22T08:39:09;11.45;;;2.67;;
39410;SDS011;26579;43.238;23.124;2023-07-22T08:41:36;9.30;;;2.70;;
39410;SDS011;26579;43.238;23.124;2023-07-22T08:44:02;8.15;;;3.13;;
39410;SDS011;26579;43.238;23.124;2023-07-22T08:46:30;9.30;;;3.10;;
39410;SDS011;26579;43.238;23.124;2023-07-22T08:49:01;9.25;;;3.90;;
39410;SDS011;26579;43.238;23.124;2023-07-22T08:51:31;6.63;;;2.80;;
39410;SDS011;26579;43.238;23.124;2023-07-22T08:53:58;11.30;;;3.40;;
39410;SDS011;26579;43.238;23.124;2023-07-22T08:56:24;13.88;;;3.20;;
39410;SDS011;26579;43.238;23.124;2023-07-22T08:58:54;8.25;;;3.03;;
39410;SDS011;26579;43.238;23.124;2023-07-22T09:01:21;8.93;;;2.97;;
39410;SDS011;26579;43.238;23.124;2023-07-22T09:03:48;15.65;;;3.13;;
39410;SDS011;26579;43.238;23.124;2023-07-22T09:06:14;11.68;;;3.22;;
39410;SDS011;26579;43.238;23.124;2023-07-22T09:08:40;14.68;;;3.40;;
39410;SDS011;26579;43.238;23.124;2023-07-22T09:11:07;12.55;;;3.60;;
39410;SDS011;26579;43.238;23.124;2023-07-22T09:13:36;7.82;;;2.55;;
39410;SDS011;26579;43.238;23.124;2023-07-22T09:16:02;8.95;;;2.67;;
39410;SDS011;26579;43.238;23.124;2023-07-22T09:18:28;10.75;;;3.17;;
39410;SDS011;26579;43.238;23.124;2023-07-22T09:20:53;9.52;;;3.70;;
39410;SDS011;26579;43.238;23.124;2023-07-22T09:23:31;8.00;;;3.13;;
39410;SDS011;26579;43.238;23.124;2023-07-22T09:26:09;8.68;;;3.10;;
39410;SDS011;26579;43.238;23.124;2023-07-22T09:31:17;9.80;;;3.22;;
39410;SDS011;26579;43.238;23.124;2023-07-22T09:33:43;6.80;;;3.08;;
39410;SDS011;26579;43.238;23.124;2023-07-22T09:36:10;10.20;;;3.83;;
39410;SDS011;26579;43.238;23.124;2023-07-22T09:38:36;9.20;;;3.17;;
39410;SDS011;26579;43.238;23.124;2023-07-22T09:41:02;9.68;;;3.13;;
39410;SDS011;26579;43.238;23.124;2023-07-22T09:43:29;11.07;;;3.20;;
39410;SDS011;26579;43.238;23.124;2023-07-22T09:45:55;11.05;;;3.20;;
39410;SDS011;26579;43.238;23.124;2023-07-22T09:48:23;9.15;;;3.30;;
39410;SDS011;26579;43.238;23.124;2023-07-22T09:50:56;15.15;;;3.13;;
39410;SDS011;26579;43.238;23.124;2023-07-22T09:53:22;8.68;;;3.58;;
39410;SDS011;26579;43.238;23.124;2023-07-22T09:55:48;7.03;;;2.97;;
39410;SDS011;26579;43.238;23.124;2023-07-22T09:58:17;10.05;;;3.22;;
39410;SDS011;26579;43.238;23.124;2023-07-22T10:00:46;8.40;;;3.50;;
39410;SDS011;26579;43.238;23.124;2023-07-22T10:03:13;9.93;;;3.78;;
39410;SDS011;26579;43.238;23.124;2023-07-22T10:05:41;10.77;;;3.55;;
39410;SDS011;26579;43.238;23.124;2023-07-22T10:08:10;10.45;;;3.38;;
39410;SDS011;26579;43.238;23.124;2023-07-22T10:10:40;7.82;;;3.38;;
39410;SDS011;26579;43.238;23.124;2023-07-22T10:13:09;10.77;;;3.05;;
39410;SDS011;26579;43.238;23.124;2023-07-22T10:15:36;11.38;;;2.85;;
39410;SDS011;26579;43.238;23.124;2023-07-22T10:18:03;12.32;;;3.67;;
39410;SDS011;26579;43.238;23.124;2023-07-22T10:20:29;10.98;;;3.88;;
39410;SDS011;26579;43.238;23.124;2023-07-22T10:22:56;11.48;;;3.03;;
39410;SDS011;26579;43.238;23.124;2023-07-22T10:25:23;9.15;;;3.67;;
39410;SDS011;26579;43.238;23.124;2023-07-22T10:27:51;10.23;;;3.25;;
39410;SDS011;26579;43.238;23.124;2023-07-22T10:30:18;9.98;;;3.22;;
39410;SDS011;26579;43.238;23.124;2023-07-22T10:36:01;12.52;;;3.40;;
39410;SDS011;26579;43.238;23.124;2023-07-22T10:38:36;12.75;;;3.40;;
39410;SDS011;26579;43.238;23.124;2023-07-22T10:41:11;14.80;;;4.07;;
39410;SDS011;26579;43.238;23.124;2023-07-22T10:43:41;19.75;;;4.43;;
39410;SDS011;26579;43.238;23.124;2023-07-22T10:46:09;11.50;;;3.47;;
39410;SDS011;26579;43.238;23.124;2023-07-22T10:48:41;10.15;;;3.95;;
39410;SDS011;26579;43.238;23.124;2023-07-22T10:51:09;9.60;;;3.20;;
39410;SDS011;26579;43.238;23.124;2023-07-22T10:53:43;6.47;;;3.08;;
39410;SDS011;26579;43.238;23.124;2023-07-22T11:11:51;11.93;;;3.45;;
39410;SDS011;26579;43.238;23.124;2023-07-22T11:14:22;9.73;;;3.08;;
39410;SDS011;26579;43.238;23.124;2023-07-22T11:16:49;11.45;;;3.30;;
39410;SDS011;26579;43.238;23.124;2023-07-22T11:19:15;12.95;;;3.72;;
39410;SDS011;26579;43.238;23.124;2023-07-22T11:21:43;7.63;;;2.78;;
39410;SDS011;26579;43.238;23.124;2023-07-22T11:24:10;10.70;;;2.97;;
39410;SDS011;26579;43.238;23.124;2023-07-22T11:26:36;10.73;;;3.33;;
39410;SDS011;26579;43.238;23.124;2023-07-22T11:29:03;7.35;;;3.38;;
39410;SDS011;26579;43.238;23.124;2023-07-22T11:31:33;8.98;;;3.28;;
39410;SDS011;26579;43.238;23.124;2023-07-22T11:34:00;6.82;;;3.20;;
39410;SDS011;26579;43.238;23.124;2023-07-22T11:36:26;12.50;;;3.60;;
39410;SDS011;26579;43.238;23.124;2023-07-22T11:38:52;9.75;;;2.95;;
39410;SDS011;26579;43.238;23.124;2023-07-22T11:41:18;9.25;;;3.30;;
39410;SDS011;26579;43.238;23.124;2023-07-22T11:43:45;11.88;;;3.58;;
39410;SDS011;26579;43.238;23.124;2023-07-22T11:46:11;9.80;;;3.78;;
39410;SDS011;26579;43.238;23.124;2023-07-22T11:48:36;11.93;;;3.33;;
39410;SDS011;26579;43.238;23.124;2023-07-22T11:51:02;9.45;;;3.33;;
39410;SDS011;26579;43.238;23.124;2023-07-22T11:53:28;7.80;;;3.05;;
39410;SDS011;26579;43.238;23.124;2023-07-22T11:55:54;10.35;;;3.63;;
39410;SDS011;26579;43.238;23.124;2023-07-22T11:58:24;9.63;;;3.85;;
39410;SDS011;26579;43.238;23.124;2023-07-22T12:01:04;8.07;;;3.58;;
39410;SDS011;26579;43.238;23.124;2023-07-22T12:03:36;14.43;;;4.05;;
39410;SDS011;26579;43.238;23.124;2023-07-22T12:06:02;7.57;;;3.08;;
39410;SDS011;26579;43.238;23.124;2023-07-22T12:08:28;14.48;;;3.80;;
39410;SDS011;26579;43.238;23.124;2023-07-22T12:11:00;10.85;;;4.25;;
39410;SDS011;26579;43.238;23.124;2023-07-22T12:13:26;15.15;;;3.45;;
39410;SDS011;26579;43.238;23.124;2023-07-22T12:16:05;13.35;;;4.43;;
39410;SDS011;26579;43.238;23.124;2023-07-22T12:18:46;13.43;;;3.88;;
39410;SDS011;26579;43.238;23.124;2023-07-22T12:21:13;10.52;;;3.83;;
39410;SDS011;26579;43.238;23.124;2023-07-22T12:23:41;10.18;;;3.63;;
39410;SDS011;26579;43.238;23.124;2023-07-22T12:26:08;10.43;;;3.65;;
39410;SDS011;26579;43.238;23.124;2023-07-22T12:28:34;13.52;;;3.63;;
39410;SDS011;26579;43.238;23.124;2023-07-22T12:30:59;7.47;;;3.10;;
39410;SDS011;26579;43.238;23.124;2023-07-22T12:33:26;9.43;;;3.75;;
39410;SDS011;26579;43.238;23.124;2023-07-22T12:35:55;9.20;;;3.72;;
39410;SDS011;26579;43.238;23.124;2023-07-22T12:38:21;11.15;;;3.47;;
39410;SDS011;26579;43.238;23.124;2023-07-22T12:40:48;9.05;;;3.92;;
39410;SDS011;26579;43.238;23.124;2023-07-22T12:43:13;12.07;;;4.13;;
39410;SDS011;26579;43.238;23.124;2023-07-22T12:45:39;11.23;;;3.33;;
39410;SDS011;26579;43.238;23.124;2023-07-22T12:48:05;7.55;;;3.25;;
39410;SDS011;26579;43.238;23.124;2023-07-22T12:54:03;13.75;;;4.32;;
39410;SDS011;26579;43.238;23.124;2023-07-22T12:56:29;9.85;;;3.38;;
39410;SDS011;26579;43.238;23.124;2023-07-22T12:58:54;8.13;;;3.15;;
39410;SDS011;26579;43.238;23.124;2023-07-22T13:01:20;10.32;;;3.33;;
39410;SDS011;26579;43.238;23.124;2023-07-22T13:03:45;10.38;;;3.75;;
39410;SDS011;26579;43.238;23.124;2023-07-22T13:06:11;12.40;;;3.72;;
39410;SDS011;26579;43.238;23.124;2023-07-22T13:08:37;11.57;;;4.07;;
39410;SDS011;26579;43.238;23.124;2023-07-22T13:11:03;11.18;;;3.75;;
39410;SDS011;26579;43.238;23.124;2023-07-22T13:13:28;11.68;;;4.22;;
39410;SDS011;26579;43.238;23.124;2023-07-22T13:15:54;8.40;;;3.45;;
39410;SDS011;26579;43.238;23.124;2023-07-22T13:18:20;12.45;;;4.07;;
39410;SDS011;26579;43.238;23.124;2023-07-22T13:20:45;10.75;;;3.50;;
39410;SDS011;26579;43.238;23.124;2023-07-22T13:23:11;8.60;;;3.35;;
39410;SDS011;26579;43.238;23.124;2023-07-22T13:25:37;11.48;;;3.33;;
39410;SDS011;26579;43.238;23.124;2023-07-22T13:28:02;13.75;;;4.90;;
39410;SDS011;26579;43.238;23.124;2023-07-22T13:30:28;6.88;;;3.55;;
39410;SDS011;26579;43.238;23.124;2023-07-22T13:32:54;12.55;;;3.38;;
39410;SDS011;26579;43.238;23.124;2023-07-22T13:35:20;16.23;;;4.28;;
39410;SDS011;26579;43.238;23.124;2023-07-22T13:37:46;8.38;;;3.58;;
39410;SDS011;26579;43.238;23.124;2023-07-22T13:40:12;7.63;;;3.00;;
39410;SDS011;26579;43.238;23.124;2023-07-22T13:42:37;9.95;;;3.92;;
39410;SDS011;26579;43.238;23.124;2023-07-22T13:45:03;8.43;;;3.25;;
39410;SDS011;26579;43.238;23.124;2023-07-22T13:47:30;8.95;;;3.03;;
39410;SDS011;26579;43.238;23.124;2023-07-22T13:49:56;10.80;;;3.53;;
39410;SDS011;26579;43.238;23.124;2023-07-22T13:52:21;9.48;;;3.90;;
39410;SDS011;26579;43.238;23.124;2023-07-22T13:54:47;6.63;;;2.63;;
39410;SDS011;26579;43.238;23.124;2023-07-22T13:57:13;10.75;;;3.15;;
39410;SDS011;26579;43.238;23.124;2023-07-22T13:59:39;9.95;;;3.40;;
39410;SDS011;26579;43.238;23.124;2023-07-22T14:02:05;10.88;;;3.25;;
39410;SDS011;26579;43.238;23.124;2023-07-22T14:04:30;10.02;;;3.50;;
39410;SDS011;26579;43.238;23.124;2023-07-22T14:06:56;9.63;;;3.20;;
39410;SDS011;26579;43.238;23.124;2023-07-22T14:09:22;9.23;;;3.03;;
39410;SDS011;26579;43.238;23.124;2023-07-22T14:11:48;8.77;;;3.55;;
39410;SDS011;26579;43.238;23.124;2023-07-22T14:14:13;11.93;;;3.58;;
39410;SDS011;26579;43.238;23.124;2023-07-22T14:16:39;6.82;;;3.28;;
39410;SDS011;26579;43.238;23.124;2023-07-22T14:19:05;8.15;;;3.50;;
39410;SDS011;26579;43.238;23.124;2023-07-22T14:21:30;8.55;;;3.10;;
39410;SDS011;26579;43.238;23.124;2023-07-22T14:23:56;12.40;;;3.47;;
39410;SDS011;26579;43.238;23.124;2023-07-22T14:26:22;7.93;;;3.70;;
39410;SDS011;26579;43.238;23.124;2023-07-22T14:28:48;8.65;;;3.22;;
39410;SDS011;26579;43.238;23.124;2023-07-22T14:31:13;14.50;;;4.22;;
39410;SDS011;26579;43.238;23.124;2023-07-22T14:33:39;10.63;;;3.42;;
39410;SDS011;26579;43.238;23.124;2023-07-22T14:36:05;10.10;;;3.28;;
39410;SDS011;26579;43.238;23.124;2023-07-22T14:38:30;11.23;;;3.80;;
39410;SDS011;26579;43.238;23.124;2023-07-22T14:40:56;12.25;;;2.92;;
39410;SDS011;26579;43.238;23.124;2023-07-22T14:43:22;8.73;;;3.10;;
39410;SDS011;26579;43.238;23.124;2023-07-22T14:45:47;9.60;;;3.53;;
39410;SDS011;26579;43.238;23.124;2023-07-22T14:48:13;11.07;;;3.92;;
39410;SDS011;26579;43.238;23.124;2023-07-22T14:50:39;12.85;;;3.70;;